Time;durP1;ratioP1;P1;durP2;ratioP2;P2;SDS_P1;SDS_P2;PMS_P1;PMS_P2;Temp;Humidity;BMP_temperature;BMP_pressure;BME280_temperature;BME280_humidity;BME280_pressure;Samples;Min_cycle;Max_cycle;Signal;HPM_P1;HPM_P2
2022/10/24 00:00:46;;;;;;;6.85;0.80;;;15.60;99.90;;;;;;5057765;28;20071;-70
2022/10/24 00:03:12;;;;;;;2.85;0.88;;;15.60;99.90;;;;;;5055096;28;20095;-72
2022/10/24 00:05:46;;;;;;;4.22;0.85;;;15.60;99.90;;;;;;5053991;28;20072;-71
2022/10/24 00:08:13;;;;;;;2.90;1.00;;;15.60;99.90;;;;;;5056881;28;20115;-71
2022/10/24 00:10:44;;;;;;;5.43;1.13;;;15.60;99.90;;;;;;5055715;28;20033;-71
2022/10/24 00:13:12;;;;;;;5.18;1.27;;;15.50;99.90;;;;;;5053984;28;20048;-72
2022/10/24 00:15:38;;;;;;;3.05;0.85;;;15.60;99.90;;;;;;5055991;28;20508;-71
2022/10/24 00:18:04;;;;;;;4.38;0.65;;;15.60;99.90;;;;;;5055543;28;20064;-73
2022/10/24 00:20:30;;;;;;;8.68;1.23;;;15.60;99.90;;;;;;5056734;28;20071;-71
2022/10/24 00:22:56;;;;;;;3.95;0.80;;;15.60;99.90;;;;;;5054458;28;20497;-72
2022/10/24 00:25:21;;;;;;;5.38;1.10;;;15.60;99.90;;;;;;5053871;28;20121;-71
2022/10/24 00:27:47;;;;;;;5.13;1.35;;;15.60;99.90;;;;;;5058008;28;20067;-71
2022/10/24 00:30:12;;;;;;;2.95;1.50;;;15.60;99.90;;;;;;5056674;28;20386;-70
2022/10/24 00:32:38;;;;;;;4.35;1.10;;;15.60;99.90;;;;;;5055096;28;20044;-71
2022/10/24 00:35:04;;;;;;;10.70;1.10;;;15.60;99.90;;;;;;5055257;28;20035;-72
2022/10/24 00:37:30;;;;;;;3.67;1.00;;;15.60;99.90;;;;;;5056593;28;20041;-72
2022/10/24 00:39:55;;;;;;;3.40;1.00;;;15.60;99.90;;;;;;5054493;28;20496;-72
2022/10/24 00:42:21;;;;;;;4.60;1.10;;;15.60;99.90;;;;;;5051859;28;20051;-70
2022/10/24 00:44:50;;;;;;;5.97;1.63;;;15.60;99.90;;;;;;5058226;28;20048;-72
2022/10/24 00:47:23;;;;;;;4.70;0.80;;;15.60;99.90;;;;;;5054413;28;20044;-72
2022/10/24 00:50:01;;;;;;;4.00;1.13;;;15.60;99.90;;;;;;5057293;28;20055;-72
2022/10/24 00:52:30;;;;;;;5.90;0.73;;;15.70;99.90;;;;;;5051789;28;20400;-71
2022/10/24 00:54:57;;;;;;;9.90;1.52;;;15.70;99.90;;;;;;5056020;28;20048;-70
2022/10/24 00:57:35;;;;;;;5.03;0.80;;;15.70;99.90;;;;;;5051936;28;20413;-71
2022/10/24 01:00:08;;;;;;;4.43;0.55;;;15.80;99.90;;;;;;5053217;28;20078;-71
2022/10/24 01:02:33;;;;;;;6.97;0.80;;;15.70;99.90;;;;;;5056275;28;20040;-71
2022/10/24 01:05:01;;;;;;;4.85;0.80;;;15.70;99.90;;;;;;5059246;28;20111;-71
2022/10/24 01:07:35;;;;;;;4.28;0.73;;;15.70;99.90;;;;;;5064644;28;20067;-72
2022/10/24 01:10:15;;;;;;;5.93;0.75;;;15.70;99.90;;;;;;5053781;28;20045;-70
2022/10/24 01:12:58;;;;;;;5.75;0.90;;;15.70;99.90;;;;;;5054906;28;20055;-73
2022/10/24 01:15:39;;;;;;;5.25;0.80;;;15.70;99.90;;;;;;5053219;28;20100;-70
2022/10/24 01:18:23;;;;;;;2.15;0.55;;;15.70;99.90;;;;;;5055919;28;20385;-72
2022/10/24 01:21:29;;;;;;;13.98;1.20;;;15.60;99.90;;;;;;5055616;28;20044;-70
2022/10/24 01:24:19;;;;;;;6.53;0.73;;;15.70;99.90;;;;;;5052960;28;20099;-72
2022/10/24 01:27:12;;;;;;;4.55;0.70;;;15.70;99.90;;;;;;5056719;28;20103;-71
2022/10/24 01:29:40;;;;;;;2.28;1.00;;;15.60;99.90;;;;;;5047039;28;20040;-72
2022/10/24 01:32:15;;;;;;;5.47;1.15;;;15.60;99.90;;;;;;5056806;28;20029;-72
2022/10/24 01:34:49;;;;;;;6.82;1.27;;;15.60;99.90;;;;;;5053542;28;20056;-71
2022/10/24 01:37:18;;;;;;;2.35;0.57;;;15.60;99.90;;;;;;5053073;28;20033;-71
2022/10/24 01:39:48;;;;;;;4.32;1.10;;;15.60;99.90;;;;;;5058300;28;20569;-70
2022/10/24 01:42:18;;;;;;;7.18;0.50;;;15.60;99.90;;;;;;5051953;28;20496;-72
2022/10/24 01:44:48;;;;;;;8.95;1.15;;;15.60;99.90;;;;;;5054841;28;20071;-71
2022/10/24 01:47:18;;;;;;;6.13;0.55;;;15.70;99.90;;;;;;5053932;28;20041;-71
2022/10/24 01:49:51;;;;;;;4.45;0.63;;;15.60;99.90;;;;;;5052907;28;20048;-71
2022/10/24 01:52:18;;;;;;;7.22;1.30;;;15.70;99.90;;;;;;5057308;28;20063;-70
2022/10/24 01:54:46;;;;;;;3.83;1.00;;;15.80;99.90;;;;;;5055068;28;20557;-71
2022/10/24 01:57:13;;;;;;;6.55;0.90;;;15.70;99.90;;;;;;5047125;28;20480;-72
2022/10/24 01:59:41;;;;;;;7.95;1.20;;;15.70;99.90;;;;;;5052578;28;20032;-72
2022/10/24 02:02:39;;;;;;;2.13;0.40;;;15.70;99.90;;;;;;5053429;28;20037;-71
2022/10/24 02:05:25;;;;;;;5.95;0.80;;;15.70;99.90;;;;;;5052303;28;20033;-72
2022/10/24 02:07:56;;;;;;;2.20;0.55;;;15.60;99.90;;;;;;5051321;28;20041;-70
2022/10/24 02:10:28;;;;;;;1.73;1.08;;;15.60;99.90;;;;;;5054392;28;20059;-71
2022/10/24 02:13:02;;;;;;;2.15;0.50;;;15.60;99.90;;;;;;5057486;28;20124;-71
2022/10/24 02:15:35;;;;;;;8.05;0.80;;;15.60;99.90;;;;;;5051945;28;20118;-71
2022/10/24 02:18:01;;;;;;;3.67;0.75;;;15.60;99.90;;;;;;5055319;28;20054;-71
2022/10/24 02:20:40;;;;;;;2.72;0.47;;;15.50;99.90;;;;;;5052810;28;20033;-71
2022/10/24 02:23:18;;;;;;;8.30;1.20;;;15.50;99.90;;;;;;5056369;28;20401;-71
2022/10/24 02:25:49;;;;;;;2.33;0.68;;;15.50;99.90;;;;;;5059875;28;20028;-71
2022/10/24 02:28:19;;;;;;;4.60;0.50;;;15.40;99.90;;;;;;5051833;28;20029;-71
2022/10/24 02:30:57;;;;;;;4.80;1.38;;;15.40;99.90;;;;;;5055242;28;20413;-71
2022/10/24 02:33:24;;;;;;;2.83;0.63;;;15.40;99.90;;;;;;5052435;28;20496;-71
2022/10/24 02:35:51;;;;;;;10.13;0.82;;;15.40;99.90;;;;;;5056503;28;20044;-70
2022/10/24 02:38:25;;;;;;;1.58;0.50;;;15.30;99.90;;;;;;5053621;28;20864;-70
2022/10/24 02:40:53;;;;;;;3.83;0.70;;;15.30;99.90;;;;;;5050712;28;20040;-71
2022/10/24 02:43:21;;;;;;;10.82;1.35;;;15.30;99.90;;;;;;5054211;28;20790;-71
2022/10/24 02:45:49;;;;;;;3.00;0.93;;;15.30;99.90;;;;;;5054353;28;20188;-71
2022/10/24 02:48:19;;;;;;;5.63;0.82;;;15.40;99.90;;;;;;5053358;28;20037;-70
2022/10/24 02:50:46;;;;;;;2.83;0.60;;;15.40;99.90;;;;;;5055862;28;20033;-71
2022/10/24 02:53:14;;;;;;;6.45;0.90;;;15.40;99.90;;;;;;5057944;28;20041;-70
2022/10/24 02:55:40;;;;;;;3.25;0.50;;;15.30;99.90;;;;;;5053236;28;20036;-71
2022/10/24 02:58:06;;;;;;;3.05;0.90;;;15.30;99.90;;;;;;5057293;28;20036;-71
2022/10/24 03:00:31;;;;;;;7.43;0.57;;;15.30;99.90;;;;;;5055182;28;20033;-71
2022/10/24 03:02:57;;;;;;;4.22;0.82;;;15.20;99.90;;;;;;5055874;28;20109;-70
2022/10/24 03:05:23;;;;;;;13.70;1.02;;;15.30;99.90;;;;;;5053632;28;20037;-71
2022/10/24 03:07:48;;;;;;;1.65;0.30;;;15.30;99.90;;;;;;5057711;28;20090;-70
2022/10/24 03:10:14;;;;;;;6.57;0.43;;;15.30;99.90;;;;;;5058986;28;20111;-71
2022/10/24 03:12:40;;;;;;;5.78;0.47;;;15.30;99.90;;;;;;5057743;28;20043;-71
2022/10/24 03:15:06;;;;;;;3.47;0.70;;;15.30;99.90;;;;;;5054413;28;20025;-71
2022/10/24 03:17:32;;;;;;;4.55;0.50;;;15.30;99.90;;;;;;5052218;28;20055;-71
2022/10/24 03:19:57;;;;;;;2.03;0.30;;;15.20;99.90;;;;;;5056080;28;20041;-71
2022/10/24 03:22:23;;;;;;;10.07;0.60;;;15.20;99.90;;;;;;5058172;28;20029;-71
2022/10/24 03:24:48;;;;;;;7.10;0.45;;;15.10;99.90;;;;;;5058569;28;20094;-71
2022/10/24 03:27:14;;;;;;;5.55;0.88;;;15.20;99.90;;;;;;5058399;28;20040;-71
2022/10/24 03:29:40;;;;;;;3.55;0.70;;;15.20;99.90;;;;;;5054967;28;20139;-71
2022/10/24 03:32:06;;;;;;;1.15;0.20;;;15.20;99.90;;;;;;5055890;28;20036;-70
2022/10/24 03:34:31;;;;;;;4.78;0.50;;;15.20;99.90;;;;;;5054625;28;20345;-70
2022/10/24 03:36:57;;;;;;;3.17;0.35;;;15.30;99.90;;;;;;5057341;28;20536;-71
2022/10/24 03:39:23;;;;;;;1.23;0.50;;;15.20;99.90;;;;;;5055498;28;20044;-70
2022/10/24 03:41:48;;;;;;;4.22;0.38;;;15.30;99.90;;;;;;5058642;28;20036;-70
2022/10/24 03:44:14;;;;;;;6.47;1.73;;;15.30;99.90;;;;;;5053048;28;20049;-70
2022/10/24 03:46:39;;;;;;;5.63;0.85;;;15.30;99.90;;;;;;5056786;28;20063;-72
2022/10/24 03:49:05;;;;;;;3.70;0.40;;;15.40;99.90;;;;;;5055941;28;20053;-71
2022/10/24 03:51:31;;;;;;;4.25;0.50;;;15.30;99.90;;;;;;5056835;28;20029;-72
2022/10/24 03:53:56;;;;;;;4.85;0.32;;;15.30;99.90;;;;;;5054738;28;20037;-70
2022/10/24 03:56:22;;;;;;;3.47;0.60;;;15.30;99.90;;;;;;5055403;28;20041;-70
2022/10/24 03:58:48;;;;;;;1.73;0.28;;;15.30;99.90;;;;;;5056858;28;20396;-70
2022/10/24 04:01:17;;;;;;;10.77;1.75;;;15.30;99.90;;;;;;5052675;28;20098;-70
2022/10/24 04:03:46;;;;;;;2.47;0.20;;;15.30;99.90;;;;;;5053569;28;20116;-71
2022/10/24 04:06:12;;;;;;;3.30;0.45;;;15.30;99.90;;;;;;5054918;28;20029;-70
2022/10/24 04:08:38;;;;;;;4.35;0.73;;;15.30;99.90;;;;;;5057307;28;20459;-70
2022/10/24 04:11:05;;;;;;;4.80;0.60;;;15.30;99.90;;;;;;5055711;28;20032;-70
2022/10/24 04:13:31;;;;;;;5.32;0.35;;;15.30;99.90;;;;;;5058328;28;20033;-70
2022/10/24 04:15:57;;;;;;;4.80;0.45;;;15.20;99.90;;;;;;5056592;28;20046;-70
2022/10/24 04:18:22;;;;;;;7.18;0.85;;;15.30;99.90;;;;;;5055361;28;20116;-71
2022/10/24 04:20:48;;;;;;;4.93;1.17;;;15.30;99.90;;;;;;5055812;28;20037;-70
2022/10/24 04:23:14;;;;;;;3.55;0.82;;;15.30;99.90;;;;;;5056812;28;20055;-69
2022/10/24 04:25:39;;;;;;;6.25;0.43;;;15.40;99.90;;;;;;5055772;28;20021;-71
2022/10/24 04:28:05;;;;;;;4.38;0.50;;;15.50;99.90;;;;;;5055267;28;20048;-72
2022/10/24 04:30:31;;;;;;;4.85;0.60;;;15.40;99.90;;;;;;5055956;28;20036;-70
2022/10/24 04:32:57;;;;;;;4.28;0.63;;;15.40;99.90;;;;;;5057855;28;20047;-72
2022/10/24 04:35:24;;;;;;;4.15;0.38;;;15.50;99.90;;;;;;5055486;28;20029;-71
2022/10/24 04:37:50;;;;;;;3.40;0.65;;;15.50;99.90;;;;;;5055547;28;20037;-71
2022/10/24 04:40:16;;;;;;;1.30;0.50;;;15.60;99.90;;;;;;5054273;28;20097;-71
2022/10/24 04:42:42;;;;;;;4.70;0.40;;;15.60;99.90;;;;;;5053133;28;20060;-71
2022/10/24 04:45:08;;;;;;;4.07;0.40;;;15.60;99.90;;;;;;5056241;28;20052;-71
2022/10/24 04:47:34;;;;;;;2.10;0.30;;;15.60;99.90;;;;;;5057117;28;20028;-70
2022/10/24 04:49:59;;;;;;;5.63;0.40;;;15.70;99.90;;;;;;5055094;28;20040;-71
2022/10/24 04:52:25;;;;;;;4.88;0.65;;;15.80;99.90;;;;;;5054733;28;20037;-70
2022/10/24 04:54:50;;;;;;;7.95;0.55;;;15.90;99.90;;;;;;5056156;28;20028;-71
2022/10/24 04:57:16;;;;;;;4.75;0.40;;;15.80;99.90;;;;;;5055328;28;20033;-72
2022/10/24 04:59:42;;;;;;;3.00;0.40;;;15.80;99.90;;;;;;5055179;28;20036;-70
2022/10/24 05:02:07;;;;;;;2.33;0.32;;;15.80;99.90;;;;;;5055950;28;20029;-69
2022/10/24 05:04:33;;;;;;;1.67;0.60;;;15.70;99.90;;;;;;5054536;28;20036;-71
2022/10/24 05:06:58;;;;;;;5.45;1.02;;;15.80;99.90;;;;;;5054885;28;20040;-71
2022/10/24 05:09:24;;;;;;;4.82;0.40;;;15.80;99.90;;;;;;5052348;28;20033;-71
2022/10/24 05:11:49;;;;;;;7.30;0.70;;;15.80;99.90;;;;;;5051979;28;20033;-70
2022/10/24 05:14:15;;;;;;;4.85;0.55;;;15.80;99.90;;;;;;5054523;28;20190;-71
2022/10/24 05:16:41;;;;;;;7.82;0.35;;;15.80;99.90;;;;;;5051840;28;20033;-70
2022/10/24 05:19:06;;;;;;;3.17;1.20;;;15.90;99.90;;;;;;5052937;28;20033;-70
2022/10/24 05:21:32;;;;;;;4.20;0.30;;;15.90;99.90;;;;;;5054912;28;20036;-71
2022/10/24 05:23:58;;;;;;;2.80;0.38;;;15.80;99.90;;;;;;5047951;28;20396;-71
2022/10/24 05:26:24;;;;;;;4.57;1.00;;;15.80;99.90;;;;;;5063385;28;20043;-70
2022/10/24 05:28:49;;;;;;;5.10;0.68;;;15.80;99.90;;;;;;5066937;28;20043;-72
2022/10/24 05:31:15;;;;;;;6.95;0.68;;;15.80;99.90;;;;;;5061011;28;20036;-70
2022/10/24 05:33:40;;;;;;;2.10;0.40;;;15.80;99.90;;;;;;5058996;28;20067;-70
2022/10/24 05:36:06;;;;;;;3.25;0.45;;;15.80;99.90;;;;;;5063951;28;20032;-71
2022/10/24 05:38:32;;;;;;;4.28;0.65;;;15.80;99.90;;;;;;5061446;28;20043;-71
2022/10/24 05:40:57;;;;;;;4.70;0.47;;;15.80;99.90;;;;;;5060270;28;20040;-70
2022/10/24 05:43:23;;;;;;;0.98;0.20;;;15.90;99.90;;;;;;5060795;28;20068;-72
2022/10/24 05:45:48;;;;;;;3.92;0.70;;;15.80;99.90;;;;;;5061191;28;20039;-71
2022/10/24 05:48:15;;;;;;;3.38;0.68;;;15.90;99.90;;;;;;5060192;28;20450;-70
2022/10/24 05:50:41;;;;;;;2.92;0.30;;;15.90;99.90;;;;;;5064655;28;20080;-69
2022/10/24 05:53:07;;;;;;;6.30;0.40;;;15.80;99.90;;;;;;5061378;28;20032;-70
2022/10/24 05:55:33;;;;;;;3.33;0.47;;;15.70;99.90;;;;;;5060217;28;20404;-71
2022/10/24 05:57:59;;;;;;;5.85;0.73;;;15.70;99.90;;;;;;5061368;28;20120;-72
2022/10/24 06:00:25;;;;;;;4.35;0.63;;;15.60;99.90;;;;;;5058984;28;20036;-70
2022/10/24 06:02:51;;;;;;;6.30;1.17;;;15.70;99.90;;;;;;5061015;28;20052;-69
2022/10/24 06:05:17;;;;;;;5.05;0.60;;;15.60;99.90;;;;;;5059499;28;20437;-71
2022/10/24 06:07:42;;;;;;;6.22;0.55;;;15.60;99.90;;;;;;5060550;28;20041;-70
2022/10/24 06:10:09;;;;;;;1.67;0.32;;;15.60;99.90;;;;;;5062753;28;20059;-71
2022/10/24 06:12:35;;;;;;;7.93;0.73;;;15.70;99.90;;;;;;5064050;28;20089;-70
2022/10/24 06:15:02;;;;;;;5.32;0.50;;;15.70;99.90;;;;;;5058843;28;20507;-71
2022/10/24 06:17:27;;;;;;;1.88;0.40;;;15.70;99.90;;;;;;5060927;28;20139;-70
2022/10/24 06:19:53;;;;;;;6.18;0.63;;;15.80;99.90;;;;;;5060802;28;20040;-70
2022/10/24 06:22:22;;;;;;;8.18;0.60;;;15.80;99.90;;;;;;5060621;28;20060;-69
2022/10/24 06:24:48;;;;;;;4.05;0.50;;;15.90;99.90;;;;;;5059977;28;20059;-70
2022/10/24 06:27:14;;;;;;;6.40;0.85;;;15.80;99.90;;;;;;5065256;28;20496;-70
2022/10/24 06:29:40;;;;;;;4.60;0.38;;;15.80;99.90;;;;;;5062311;28;20063;-70
2022/10/24 06:32:06;;;;;;;3.38;0.50;;;15.80;99.90;;;;;;5072659;28;20035;-71
2022/10/24 06:34:32;;;;;;;3.25;0.22;;;15.70;99.90;;;;;;5059075;28;20037;-69
2022/10/24 06:36:57;;;;;;;11.63;0.65;;;15.80;99.90;;;;;;5058041;28;20044;-70
2022/10/24 06:39:23;;;;;;;6.28;0.47;;;15.70;99.90;;;;;;5066660;28;20044;-71
2022/10/24 06:41:48;;;;;;;9.13;0.82;;;15.70;99.90;;;;;;5066866;28;20033;-70
2022/10/24 06:44:14;;;;;;;5.00;0.50;;;15.70;99.90;;;;;;5065049;28;20067;-71
2022/10/24 06:46:40;;;;;;;8.65;0.50;;;15.70;99.90;;;;;;5068228;28;20033;-71
2022/10/24 06:49:06;;;;;;;6.47;0.40;;;15.80;99.90;;;;;;5067064;28;20035;-71
2022/10/24 06:51:32;;;;;;;5.03;0.65;;;15.90;99.90;;;;;;5067625;28;20059;-70
2022/10/24 06:53:58;;;;;;;2.85;0.65;;;15.90;99.90;;;;;;5064794;28;20498;-70
2022/10/24 06:56:24;;;;;;;5.93;0.40;;;15.90;99.90;;;;;;5066911;28;20040;-70
2022/10/24 06:58:50;;;;;;;4.00;1.00;;;16.00;99.90;;;;;;5073941;28;20123;-69
2022/10/24 07:01:19;;;;;;;5.55;0.50;;;16.10;99.90;;;;;;5075418;28;20116;-70
2022/10/24 07:03:45;;;;;;;3.80;0.60;;;16.10;99.90;;;;;;5067502;28;20047;-70
2022/10/24 07:06:31;;;;;;;3.28;0.40;;;16.10;99.90;;;;;;5065010;28;20044;-70
2022/10/24 07:08:58;;;;;;;3.33;0.70;;;16.10;99.90;;;;;;5074526;28;20568;-71
2022/10/24 07:11:25;;;;;;;2.55;0.68;;;16.10;99.90;;;;;;5067601;28;20123;-70
2022/10/24 07:13:51;;;;;;;7.97;0.50;;;16.20;99.90;;;;;;5072348;28;20052;-70
2022/10/24 07:16:17;;;;;;;4.20;0.63;;;16.10;99.90;;;;;;5069806;28;20870;-71
2022/10/24 07:18:43;;;;;;;10.27;1.27;;;16.10;99.90;;;;;;5071677;28;20025;-71
2022/10/24 07:21:19;;;;;;;3.83;0.55;;;16.10;99.90;;;;;;5064531;28;20128;-70
2022/10/24 07:23:45;;;;;;;4.72;0.70;;;16.10;99.90;;;;;;5064262;28;20040;-70
2022/10/24 07:26:13;;;;;;;6.95;0.93;;;16.10;99.90;;;;;;5060620;28;20033;-72
2022/10/24 07:28:39;;;;;;;5.68;0.95;;;16.10;99.90;;;;;;5065347;28;20929;-71
2022/10/24 07:31:06;;;;;;;3.83;1.10;;;16.10;99.90;;;;;;5071166;28;20040;-71
2022/10/24 07:33:32;;;;;;;9.75;0.57;;;16.10;99.90;;;;;;5064405;28;20032;-71
2022/10/24 07:35:58;;;;;;;4.82;0.60;;;16.00;99.90;;;;;;5067350;28;20035;-69
2022/10/24 07:38:23;;;;;;;5.18;0.40;;;16.00;99.90;;;;;;5064642;28;20503;-70
2022/10/24 07:40:49;;;;;;;6.47;0.85;;;16.00;99.90;;;;;;5064746;28;20032;-70
2022/10/24 07:43:16;;;;;;;8.07;0.73;;;16.00;99.90;;;;;;5064603;28;20035;-70
2022/10/24 07:45:43;;;;;;;7.45;1.08;;;16.00;99.90;;;;;;5063199;28;20032;-70
2022/10/24 07:48:09;;;;;;;5.07;0.70;;;16.10;99.90;;;;;;5073689;28;20036;-71
2022/10/24 07:50:42;;;;;;;9.23;0.95;;;16.10;99.90;;;;;;5072981;28;20039;-69
2022/10/24 07:53:07;;;;;;;6.60;0.60;;;16.10;99.90;;;;;;5065922;28;20024;-70
2022/10/24 07:55:33;;;;;;;6.88;0.95;;;16.10;99.90;;;;;;5063775;28;20553;-72
2022/10/24 07:57:58;;;;;;;6.22;1.50;;;16.10;99.90;;;;;;5064152;28;20033;-69
2022/10/24 08:00:24;;;;;;;7.70;0.70;;;16.20;99.90;;;;;;5066451;28;20361;-70
2022/10/24 08:02:50;;;;;;;3.38;0.98;;;16.20;99.90;;;;;;5070272;28;20650;-71
2022/10/24 08:05:15;;;;;;;3.58;0.50;;;16.20;99.90;;;;;;5064403;28;20198;-71
2022/10/24 08:07:41;;;;;;;11.38;1.77;;;16.30;99.90;;;;;;5068148;28;21033;-70
2022/10/24 08:10:11;;;;;;;2.75;0.45;;;16.20;99.90;;;;;;5068398;28;20716;-71
2022/10/24 08:12:37;;;;;;;3.80;0.45;;;16.20;99.90;;;;;;5062466;28;20037;-71
2022/10/24 08:15:03;;;;;;;8.13;1.30;;;16.20;99.90;;;;;;5069625;28;20044;-71
2022/10/24 08:17:29;;;;;;;6.38;0.57;;;16.20;99.90;;;;;;5062602;28;20415;-72
2022/10/24 08:19:54;;;;;;;5.50;1.02;;;16.10;99.90;;;;;;5067901;28;20029;-70
2022/10/24 08:22:20;;;;;;;5.03;0.45;;;16.20;99.90;;;;;;5063350;28;20052;-71
2022/10/24 08:24:46;;;;;;;4.28;0.85;;;16.20;99.90;;;;;;5062795;28;20631;-70
2022/10/24 08:27:12;;;;;;;10.32;0.77;;;16.20;99.90;;;;;;5062615;28;20033;-69
2022/10/24 08:29:38;;;;;;;3.17;0.65;;;16.20;99.90;;;;;;5066733;28;20056;-70
2022/10/24 08:32:05;;;;;;;5.25;0.50;;;16.20;99.90;;;;;;5069103;28;20036;-71
2022/10/24 08:34:32;;;;;;;4.65;0.35;;;16.20;99.90;;;;;;5064398;28;20051;-70
2022/10/24 08:36:58;;;;;;;6.10;0.98;;;16.00;99.90;;;;;;5056333;28;20029;-69
2022/10/24 08:39:23;;;;;;;4.10;0.90;;;15.80;99.90;;;;;;5061371;28;20413;-71
2022/10/24 08:41:54;;;;;;;3.88;0.60;;;15.60;99.90;;;;;;5069600;28;20109;-70
2022/10/24 08:44:41;;;;;;;3.08;0.45;;;15.50;99.90;;;;;;5063584;28;20509;-69
2022/10/24 08:47:27;;;;;;;7.88;1.00;;;15.30;99.90;;;;;;5060242;28;20047;-71
2022/10/24 08:50:15;;;;;;;5.05;0.55;;;15.20;99.90;;;;;;5070457;28;20046;-71
2022/10/24 08:52:52;;;;;;;15.77;1.25;;;14.90;99.90;;;;;;5064258;28;20055;-71
2022/10/24 08:55:24;;;;;;;11.13;1.05;;;14.90;99.90;;;;;;5062192;28;20056;-71
2022/10/24 08:57:54;;;;;;;4.70;0.52;;;14.80;99.90;;;;;;5067918;28;20040;-69
2022/10/24 09:00:30;;;;;;;8.03;0.90;;;14.80;99.90;;;;;;5062618;28;20040;-70
2022/10/24 09:03:04;;;;;;;9.68;0.73;;;14.90;99.90;;;;;;5058694;28;20043;-70
2022/10/24 09:05:56;;;;;;;9.77;0.80;;;15.00;99.90;;;;;;5058757;28;20036;-70
2022/10/24 09:08:37;;;;;;;6.93;0.60;;;15.10;99.90;;;;;;5061713;28;20493;-74
2022/10/24 09:11:05;;;;;;;2.90;0.50;;;15.20;99.90;;;;;;5059797;28;20056;-70
2022/10/24 09:13:34;;;;;;;2.55;0.43;;;15.30;99.90;;;;;;5062263;28;20083;-72
2022/10/24 09:16:00;;;;;;;7.88;1.05;;;15.30;99.90;;;;;;5066745;28;20599;-71
2022/10/24 09:18:33;;;;;;;7.60;0.45;;;15.40;99.90;;;;;;5064402;28;20553;-71
2022/10/24 09:21:00;;;;;;;2.80;0.45;;;15.40;99.90;;;;;;5067507;28;20040;-70
2022/10/24 09:23:27;;;;;;;8.50;0.82;;;15.40;99.90;;;;;;5066554;28;20064;-70
2022/10/24 09:25:56;;;;;;;6.25;1.40;;;15.50;99.90;;;;;;5058978;28;20393;-71
2022/10/24 09:28:22;;;;;;;6.60;0.68;;;15.50;99.90;;;;;;5060928;28;20029;-72
2022/10/24 09:30:49;;;;;;;5.57;0.75;;;15.60;99.90;;;;;;5061444;28;20040;-69
2022/10/24 09:33:32;;;;;;;6.97;0.80;;;15.70;99.90;;;;;;5056960;28;20123;-69
2022/10/24 09:36:03;;;;;;;4.05;0.50;;;15.80;99.90;;;;;;5057243;28;20032;-67
2022/10/24 09:38:32;;;;;;;10.57;0.60;;;16.00;99.90;;;;;;5059383;28;20074;-70
2022/10/24 09:41:09;;;;;;;5.00;0.82;;;16.10;99.90;;;;;;5058935;28;20028;-69
2022/10/24 09:43:47;;;;;;;5.40;1.13;;;16.00;99.90;;;;;;5052356;28;20049;-70
2022/10/24 09:46:18;;;;;;;3.42;0.38;;;15.90;99.90;;;;;;5056832;28;20085;-69
2022/10/24 09:49:01;;;;;;;10.77;1.10;;;15.80;99.90;;;;;;5059946;28;20033;-71
2022/10/24 09:51:48;;;;;;;4.88;0.88;;;15.70;99.90;;;;;;5056707;28;20029;-72
2022/10/24 09:54:17;;;;;;;5.55;0.80;;;15.80;99.90;;;;;;5058465;28;20037;-68
2022/10/24 09:56:54;;;;;;;4.90;0.70;;;15.80;99.90;;;;;;5057686;28;20052;-70
2022/10/24 09:59:34;;;;;;;6.55;1.08;;;15.80;99.90;;;;;;5058203;28;20061;-70
2022/10/24 10:02:25;;;;;;;4.85;1.02;;;15.90;99.90;;;;;;5058942;28;20064;-70
2022/10/24 10:05:03;;;;;;;4.65;0.50;;;16.00;99.90;;;;;;5054482;28;20529;-69
2022/10/24 10:07:41;;;;;;;4.43;0.50;;;16.10;99.90;;;;;;5052187;28;20108;-70
2022/10/24 10:10:28;;;;;;;2.20;0.40;;;16.10;99.90;;;;;;5055734;28;20028;-69
2022/10/24 10:13:05;;;;;;;3.10;0.40;;;16.30;99.90;;;;;;5057051;28;20435;-68
2022/10/24 10:15:53;;;;;;;3.97;0.32;;;16.30;99.90;;;;;;5051986;28;20055;-68
2022/10/24 10:18:18;;;;;;;4.78;0.50;;;16.30;99.90;;;;;;5055043;28;20043;-69
2022/10/24 10:20:44;;;;;;;3.17;0.80;;;16.30;99.90;;;;;;5054336;28;20390;-69
2022/10/24 10:23:30;;;;;;;7.10;0.40;;;16.30;99.90;;;;;;5057232;28;20039;-71
2022/10/24 10:26:13;;;;;;;3.90;0.43;;;16.40;99.90;;;;;;5051658;28;20864;-70
2022/10/24 10:29:05;;;;;;;1.15;0.35;;;16.30;99.90;;;;;;5053779;28;20060;-69
2022/10/24 10:31:43;;;;;;;6.18;0.75;;;16.40;99.90;;;;;;5048476;28;20041;-69
2022/10/24 10:34:14;;;;;;;6.07;0.40;;;16.40;99.90;;;;;;5059128;28;20560;-68
2022/10/24 10:37:17;;;;;;;2.75;0.77;;;16.40;99.90;;;;;;5056516;28;20033;-68
2022/10/24 10:40:01;;;;;;;2.75;0.63;;;16.40;99.90;;;;;;5057270;28;20040;-68
2022/10/24 10:43:02;;;;;;;1.67;0.30;;;16.40;99.90;;;;;;5053205;28;20485;-71
2022/10/24 10:45:39;;;;;;;4.22;0.40;;;16.60;99.90;;;;;;4995676;28;20082;-70
2022/10/24 10:48:05;;;;;;;2.28;0.77;;;16.70;99.90;;;;;;5051696;28;20051;-71
2022/10/24 10:51:05;;;;;;;5.95;0.50;;;16.70;99.90;;;;;;5055786;28;20044;-71
2022/10/24 10:53:49;;;;;;;3.88;0.30;;;16.80;99.90;;;;;;5051531;28;20048;-69
2022/10/24 10:56:36;;;;;;;3.83;0.40;;;16.90;99.90;;;;;;5056281;28;20043;-70
2022/10/24 10:59:20;;;;;;;3.83;0.50;;;16.90;99.90;;;;;;5056455;28;20735;-71
2022/10/24 11:02:21;;;;;;;3.55;0.35;;;16.90;99.90;;;;;;5058230;28;20055;-68
2022/10/24 11:05:16;;;;;;;7.00;0.80;;;16.90;99.90;;;;;;5055830;28;20040;-70
2022/10/24 11:08:00;;;;;;;7.20;0.32;;;16.90;99.90;;;;;;5054388;28;21999;-69
2022/10/24 11:10:38;;;;;;;4.75;0.40;;;16.80;99.90;;;;;;5055012;28;20107;-71
2022/10/24 11:13:10;;;;;;;2.80;0.30;;;16.70;99.90;;;;;;5051330;28;20507;-71
2022/10/24 11:15:41;;;;;;;6.22;0.85;;;16.80;99.90;;;;;;5058360;28;20043;-71
2022/10/24 11:18:26;;;;;;;;;;;16.60;99.90;;;;;;5056673;28;20037;-71
2022/10/24 11:21:01;;;;;;;7.35;0.60;;;16.60;99.90;;;;;;5060440;28;19952;-69
2022/10/24 11:23:45;;;;;;;5.15;0.43;;;16.50;99.90;;;;;;5056383;28;20044;-71
2022/10/24 11:26:38;;;;;;;1.30;0.13;;;16.30;99.90;;;;;;5056792;28;20085;-69
2022/10/24 11:29:28;;;;;;;5.00;0.40;;;16.00;99.90;;;;;;5055763;28;20036;-70
2022/10/24 11:32:01;;;;;;;1.85;0.32;;;15.80;99.90;;;;;;5057831;28;20043;-69
2022/10/24 11:34:52;;;;;;;3.58;0.60;;;15.60;99.90;;;;;;5053464;28;20037;-69
2022/10/24 11:37:26;;;;;;;;;;;15.50;99.90;;;;;;5059367;28;20040;-72
2022/10/24 11:40:12;;;;;;;3.13;0.40;;;15.40;99.90;;;;;;5056861;28;19924;-68
2022/10/24 11:42:58;;;;;;;3.80;0.70;;;15.50;99.90;;;;;;5058575;28;20035;-69
2022/10/24 11:45:31;;;;;;;7.32;1.17;;;15.60;99.90;;;;;;5059610;28;20053;-70
2022/10/24 11:48:16;;;;;;;2.05;0.30;;;15.60;99.90;;;;;;5058391;28;20062;-69
2022/10/24 11:50:56;;;;;;;3.33;0.80;;;15.50;99.90;;;;;;5059020;28;20451;-71
2022/10/24 11:53:58;;;;;;;3.50;0.90;;;15.50;99.90;;;;;;5056429;28;20032;-70
2022/10/24 11:56:40;;;;;;;7.57;1.25;;;15.60;99.90;;;;;;5051350;28;20103;-72
2022/10/24 11:59:24;;;;;;;4.95;0.55;;;15.60;99.90;;;;;;5058771;28;20101;-71
2022/10/24 12:01:58;;;;;;;6.78;0.63;;;15.70;99.90;;;;;;5056083;28;20052;-69
2022/10/24 12:04:58;;;;;;;3.70;0.52;;;15.70;99.90;;;;;;5053927;28;20118;-70
2022/10/24 12:07:55;;;;;;;3.30;0.93;;;15.80;99.90;;;;;;5054445;28;20607;-70
2022/10/24 12:10:39;;;;;;;4.57;0.45;;;15.90;99.90;;;;;;5052083;28;20042;-71
2022/10/24 12:13:42;;;;;;;4.22;0.40;;;16.00;99.90;;;;;;5054721;28;20067;-70
2022/10/24 12:16:35;;;;;;;0.70;0.30;;;16.00;99.90;;;;;;5060470;28;20040;-71
2022/10/24 12:19:14;;;;;;;7.00;1.13;;;16.10;99.90;;;;;;5056172;28;20029;-70
2022/10/24 12:21:46;;;;;;;6.75;0.68;;;16.10;99.90;;;;;;5053865;28;20268;-69
2022/10/24 12:24:31;;;;;;;4.32;0.60;;;16.10;99.90;;;;;;5053975;28;20037;-71
2022/10/24 12:27:23;;;;;;;7.68;0.88;;;16.10;99.90;;;;;;5056492;28;20029;-69
2022/10/24 12:30:07;;;;;;;4.43;0.30;;;16.10;99.90;;;;;;5054371;28;20127;-69
2022/10/24 12:32:47;;;;;;;2.72;0.57;;;16.20;99.90;;;;;;5052114;28;20086;-70
2022/10/24 12:35:33;;;;;;;2.50;0.52;;;16.30;99.90;;;;;;5051921;28;20033;-69
2022/10/24 12:38:00;;;;;;;3.67;0.90;;;16.30;99.90;;;;;;5054872;28;20040;-70
2022/10/24 12:40:44;;;;;;;3.53;0.60;;;16.30;99.90;;;;;;5057335;28;20405;-69
2022/10/24 12:43:15;;;;;;;4.63;0.95;;;16.30;99.90;;;;;;5056397;28;20032;-70
2022/10/24 12:45:41;;;;;;;5.95;0.70;;;16.20;99.90;;;;;;5053326;28;20044;-69
2022/10/24 12:49:02;;;;;;;2.53;0.40;;;16.10;99.90;;;;;;5057581;28;20082;-69
2022/10/24 12:51:35;;;;;;;13.00;1.33;;;15.90;99.90;;;;;;4967863;28;20038;-69
2022/10/24 12:54:10;;;;;;;4.93;0.75;;;15.80;99.90;;;;;;5054702;28;20060;-70
2022/10/24 12:56:48;;;;;;;7.40;0.57;;;15.70;99.90;;;;;;5052139;28;20103;-70
2022/10/24 12:59:23;;;;;;;4.93;0.98;;;15.60;99.90;;;;;;5053677;28;20065;-70
2022/10/24 13:02:10;;;;;;;2.65;0.63;;;15.50;99.90;;;;;;5055913;28;20024;-70
2022/10/24 13:05:09;;;;;;;7.38;0.65;;;15.30;99.90;;;;;;5052349;28;20047;-70
2022/10/24 13:08:01;;;;;;;7.38;0.80;;;15.30;99.90;;;;;;5054304;28;20139;-68
2022/10/24 13:10:50;;;;;;;7.18;0.75;;;15.20;99.90;;;;;;5047723;28;20078;-69
2022/10/24 13:13:34;;;;;;;3.17;0.88;;;15.20;99.90;;;;;;5053247;28;20072;-69